^^
Station Historical Data
Daily Summary for October 30, 2017 Units:  Metric    English   Both
« Previous Day
Next Day »
Daily Weekly Monthly Yearly Custom
  High: Low: Average:
Temperature: 34.9 °C 17.4 °C 23.1 °C
Dew Point: 17.3 °C 9.3 °C 12.9 °C
Humidity: 74% 21% 55%
Wind Speed: 40.4km/h 0km/h 9km/h
Wind Gust: 48.3km/h - -
Wind- - South
Pressure: 1013.4 hPa 1009.4 hPa -
Precipitation: 0.51 mm    
Historical Graphs
 
 
Tabular Data for October 30, 2017
Time Temperature Dew Point Pressure Wind Wind Speed Wind Gust Humidity Rainfall Rate (Hourly) solar Conditions
00:50 20 °C 12 °C 1010.7 hPa Calm     60% 0 mm 0.0 W/m2
01:06 19.9 °C 11.4 °C 1010.7 hPa Calm     58% 0 mm 0.0 W/m2
01:11 20.1 °C 10.5 °C 1010.7 hPa Calm     54% 0 mm 0.0 W/m2
01:16 20.4 °C 10.5 °C 1010.7 hPa Calm     53% 0 mm 0.0 W/m2
01:22 20.5 °C 10.3 °C 1010.4 hPa Calm     52% 0 mm 0.0 W/m2
01:27 20.5 °C 10.3 °C 1010.4 hPa Calm     52% 0 mm 0.0 W/m2
01:32 20.5 °C 10.9 °C 1010.4 hPa Calm     54% 0 mm 0.0 W/m2
01:38 20.4 °C 10.8 °C 1010.7 hPa Calm     54% 0 mm 0.0 W/m2
01:43 20.2 °C 10.3 °C 1010.4 hPa Calm     53% 0 mm 0.0 W/m2
01:48 20.2 °C 10.3 °C 1010.4 hPa Calm     53% 0 mm 0.0 W/m2
01:53 20.1 °C 11.8 °C 1010.4 hPa Calm     59% 0 mm 0.0 W/m2
01:58 19.7 °C 11.5 °C 1010.7 hPa Calm     59% 0 mm 0.0 W/m2
02:08 20.8 °C 10.9 °C 1010.7 hPa NNW 11.1 km/h 17.7 km/h 53% 0 mm 0.0 W/m2
02:13 21.1 °C 11.1 °C 1010.7 hPa NW 13 km/h 22.5 km/h 53% 0 mm 0.0 W/m2
02:28 21.1 °C 11.1 °C 1010.7 hPa NW 13 km/h 17.7 km/h 53% 0 mm 0.0 W/m2
02:33 21.6 °C 11 °C 1010.7 hPa NW 6.4 km/h 14.5 km/h 51% 0 mm 0.0 W/m2
02:39 21.5 °C 11.2 °C 1011.1 hPa Calm     52% 0 mm 0.0 W/m2
02:48 21.1 °C 11.4 °C 1011.1 hPa Calm     54% 0 mm 0.0 W/m2
02:54 20.6 °C 12 °C 1011.4 hPa Calm     58% 0 mm 0.0 W/m2
02:59 19.9 °C 11.9 °C 1011.4 hPa Calm     60% 0 mm 0.0 W/m2
03:05 19.7 °C 11.7 °C 1011.1 hPa Calm     60% 0 mm 0.0 W/m2
03:09 19.6 °C 11.6 °C 1011.4 hPa Calm     60% 0 mm 0.0 W/m2
03:14 19.5 °C 11.5 °C 1011.4 hPa Calm     60% 0 mm 0.0 W/m2
03:20 19.3 °C 11.6 °C 1011.1 hPa Calm     61% 0 mm 0.0 W/m2
03:26 18.9 °C 11.7 °C 1011.1 hPa Calm     63% 0 mm 0.0 W/m2
03:31 18.7 °C 11.8 °C 1011.1 hPa Calm     64% 0 mm 0.0 W/m2
03:41 18.2 °C 11.7 °C 1011.1 hPa Calm     66% 0 mm 0.0 W/m2
03:47 17.9 °C 11.9 °C 1010.7 hPa Calm     68% 0 mm 0.0 W/m2
03:52 17.7 °C 11.9 °C 1011.1 hPa Calm     69% 0 mm 0.0 W/m2
03:58 17.6 °C 11.8 °C 1011.1 hPa Calm     69% 0 mm 0.0 W/m2
04:08 19.1 °C 11.9 °C 1011.1 hPa Calm     63% 0 mm 0.0 W/m2
04:17 19.8 °C 11.8 °C 1011.1 hPa Calm     60% 0 mm 0.0 W/m2
04:22 20.1 °C 12.1 °C 1011.1 hPa Calm     60% 0 mm 0.0 W/m2
04:32 19.9 °C 11.9 °C 1011.1 hPa Calm     60% 0 mm 0.0 W/m2
04:37 19.9 °C 11.9 °C 1011.1 hPa Calm     60% 0 mm 0.0 W/m2
04:43 19.9 °C 11.9 °C 1010.7 hPa Calm     60% 0 mm 0.0 W/m2
04:48 19.9 °C 12.2 °C 1010.7 hPa Calm     61% 0 mm 0.0 W/m2
04:53 19.9 °C 12.2 °C 1010.7 hPa Calm     61% 0 mm 0.0 W/m2
04:59 19.4 °C 11.9 °C 1010.7 hPa Calm     62% 0 mm 0.0 W/m2
05:04 18.8 °C 11.8 °C 1010.7 hPa Calm     64% 0 mm 0.0 W/m2
05:09 18.7 °C 12 °C 1010.7 hPa Calm     65% 0 mm 0.0 W/m2
05:14 18.7 °C 12.2 °C 1011.1 hPa Calm     66% 0 mm 0.0 W/m2
05:19 18.8 °C 12.1 °C 1011.1 hPa Calm     65% 0 mm 0.0 W/m2
05:25 18.8 °C 12.1 °C 1011.1 hPa Calm     65% 0 mm 0.0 W/m2
05:30 18.7 °C 12 °C 1011.1 hPa Calm     65% 0 mm 0.0 W/m2
06:01 17.6 °C 11.8 °C 1011.4 hPa Calm     69% 0 mm 0.0 W/m2
06:06 17.5 °C 11.7 °C 1011.4 hPa Calm     69% 0 mm 7.0 W/m2
06:11 17.4 °C 11.7 °C 1011.4 hPa Calm     69% 0 mm 11.0 W/m2
06:21 17.7 °C 11.9 °C 1011.7 hPa Calm     69% 0 mm 16.0 W/m2
06:36 18.3 °C 12.3 °C 1011.7 hPa Calm     68% 0 mm 33.0 W/m2
06:41 18.5 °C 12.5 °C 1011.7 hPa Calm     68% 0 mm 40.0 W/m2
06:46 18.9 °C 12.6 °C 1012.1 hPa Calm     67% 0 mm 49.0 W/m2
06:54 19.6 °C 12.6 °C 1011.7 hPa NNW 6.4 km/h 14.5 km/h 64% 0 mm 63.0 W/m2
07:01 20.3 °C 13 °C 1011.7 hPa NNW 3.2 km/h 14.5 km/h 63% 0 mm 93.0 W/m2
07:07 20.3 °C 13 °C 1011.7 hPa NNW 3.2 km/h 14.5 km/h 63% 0 mm 93.0 W/m2
07:20 20.9 °C 13.3 °C 1012.1 hPa NNW 1.4 km/h 19.3 km/h 62% 0 mm 141.0 W/m2
07:31 21.3 °C 13.5 °C 1012.4 hPa NNW 11.1 km/h 20.9 km/h 61% 0 mm 171.0 W/m2
07:39 21.7 °C 13.8 °C 1012.4 hPa NNW 14.3 km/h 19.3 km/h 61% 0 mm 200.0 W/m2
07:44 21.8 °C 13.7 °C 1012.4 hPa NNW 9.7 km/h 19.3 km/h 60% 0 mm 216.0 W/m2
07:51 22 °C 13.9 °C 1012.4 hPa NNW 14.3 km/h 20.9 km/h 60% 0 mm 230.0 W/m2
07:57 22.6 °C 13.6 °C 1012.4 hPa North 11.1 km/h 22.5 km/h 57% 0 mm 258.0 W/m2
08:07 23.2 °C 13.7 °C 1012.8 hPa North 13 km/h 19.3 km/h 55% 0 mm 295.0 W/m2
08:22 23.9 °C 14 °C 1012.8 hPa North 9.7 km/h 20.9 km/h 54% 0 mm 339.0 W/m2
08:43 25.1 °C 13.9 °C 1012.8 hPa NNE 22.7 km/h 32.2 km/h 50% 0 mm 387.0 W/m2
08:58 25.9 °C 13.7 °C 1012.8 hPa North 24.1 km/h 35.4 km/h 47% 0 mm 432.0 W/m2
09:12 26.4 °C 13.5 °C 1012.4 hPa North 40.4 km/h 40.4 km/h 45% 0 mm 480.0 W/m2
09:23 26.8 °C 13.5 °C 1012.4 hPa North 30.6 km/h 33.8 km/h 44% 0 mm 513.0 W/m2
09:37 27.2 °C 13.5 °C 1012.4 hPa North 17.7 km/h 35.4 km/h 43% 0 mm 554.0 W/m2
09:47 27.4 °C 13.7 °C 1012.8 hPa North 20.9 km/h 29 km/h 43% 0 mm 582.0 W/m2
09:53 27.6 °C 13.5 °C 1012.8 hPa North 14.3 km/h 33.8 km/h 42% 0 mm 612.0 W/m2
10:09 27.9 °C 13.8 °C 1012.4 hPa NNE 20.9 km/h 37 km/h 42% 0 mm 636.0 W/m2
10:21 28.3 °C 13.8 °C 1012.4 hPa NNW 24.1 km/h 32.2 km/h 41% 0 mm 673.0 W/m2
10:28 28.4 °C 13.5 °C 1012.4 hPa North 27.4 km/h 43.5 km/h 40% 0 mm 696.0 W/m2
10:42 28.8 °C 14.2 °C 1012.4 hPa NNE 19.5 km/h 33.8 km/h 41% 0 mm 719.0 W/m2
10:52 28.9 °C 13.6 °C 1012.4 hPa North 11.1 km/h 37 km/h 39% 0 mm 742.0 W/m2
10:58 29.1 °C 14.1 °C 1012.4 hPa North 35.2 km/h 37 km/h 40% 0 mm 754.0 W/m2
11:13 29.9 °C 14.4 °C 1012.1 hPa North 24.1 km/h 45.1 km/h 39% 0 mm 773.0 W/m2
11:23 29.9 °C 14 °C 1012.1 hPa NNE 33.8 km/h 35.4 km/h 38% 0 mm 796.0 W/m2
11:29 29.9 °C 14 °C 1012.1 hPa NNE 33.8 km/h 35.4 km/h 38% 0 mm 796.0 W/m2
11:43 30.2 °C 13.9 °C 1011.7 hPa North 28.8 km/h 48.3 km/h 37% 0 mm 816.0 W/m2
11:57 30.9 °C 13.7 °C 1011.7 hPa North 32 km/h 37 km/h 35% 0 mm 831.0 W/m2
12:06 31.3 °C 13.6 °C 1011.4 hPa NNW 27.4 km/h 32.2 km/h 34% 0 mm 703.0 W/m2
13:59 33.4 °C 11.9 °C 1010.4 hPa North 9.7 km/h 24.1 km/h 27% 0 mm 800.0 W/m2
14:28 33.5 °C 10.8 °C 1010 hPa NNW 19.5 km/h 29 km/h 25% 0 mm 761.0 W/m2
14:39 34.3 °C 10.8 °C 1010 hPa NE 11.1 km/h 32.2 km/h 24% 0 mm 745.0 W/m2
14:50 34.3 °C 10.2 °C 1009.7 hPa Calm   30.6 km/h 23% 0 mm 721.0 W/m2
14:59 34.2 °C 10.7 °C 1009.7 hPa North 13 km/h 22.5 km/h 24% 0 mm 694.0 W/m2
15:19 34.6 °C 11.1 °C 1009.4 hPa North 14.3 km/h 19.3 km/h 24% 0 mm 650.0 W/m2
15:28 34.7 °C 9.9 °C 1009.4 hPa NE 9.7 km/h 27.4 km/h 22% 0 mm 650.0 W/m2
15:38 34.9 °C 9.3 °C 1009.4 hPa NNW 14.3 km/h 24.1 km/h 21% 0 mm 664.0 W/m2
15:46 34.9 °C 10 °C 1009.4 hPa NNW 7.9 km/h 19.3 km/h 22% 0 mm 591.0 W/m2
20:35 28 °C 11.5 °C 1010.7 hPa SE 22.7 km/h 27.4 km/h 36% 0 mm 0.0 W/m2
20:46 27.6 °C 12 °C 1011.1 hPa SE 16.3 km/h 25.7 km/h 38% 0 mm 0.0 W/m2
21:19 26.9 °C 12.5 °C 1013.1 hPa Calm     41% 0 mm 0.0 W/m2
21:34 24.9 °C 16.6 °C 1012.8 hPa SE 7.9 km/h 14.5 km/h 60% 0 mm 0.0 W/m2
22:00 23.2 °C 17.2 °C 1013.4 hPa ESE 16.3 km/h 16.3 km/h 69% 0.51 mm 0.0 W/m2
22:08 22.5 °C 17 °C 1013.4 hPa ESE 16.3 km/h 17.7 km/h 71% 0.51 mm 0.0 W/m2
22:13 22.3 °C 17 °C 1013.4 hPa ESE 11.1 km/h 14.5 km/h 72% 0.51 mm 0.0 W/m2
22:18 22.3 °C 16.6 °C 1013.4 hPa ESE 16.3 km/h 17.7 km/h 70% 0.51 mm 0.0 W/m2
22:28 22.5 °C 17.2 °C 1013.1 hPa ESE 16.3 km/h 17.7 km/h 72% 0.51 mm 0.0 W/m2
22:33 22.2 °C 17.3 °C 1013.1 hPa ESE 19.5 km/h 19.5 km/h 74% 0.51 mm 0.0 W/m2
22:38 21.9 °C 17.1 °C 1012.8 hPa ESE 14.3 km/h 17.7 km/h 74% 0 mm 0.0 W/m2
22:44 21.9 °C 16.8 °C 1012.8 hPa ESE 11.1 km/h 17.7 km/h 73% 0 mm 0.0 W/m2
22:54 22.2 °C 16.5 °C 1012.8 hPa ESE 16.3 km/h 17.7 km/h 70% 0 mm 0.0 W/m2
22:59 22.2 °C 16.9 °C 1012.4 hPa ESE 13 km/h 16.1 km/h 72% 0 mm 0.0 W/m2
23:04 22.1 °C 17 °C 1012.4 hPa ESE 9.7 km/h 16.1 km/h 73% 0 mm 0.0 W/m2
23:09 22.2 °C 16.9 °C 1012.1 hPa ESE 9.7 km/h 14.5 km/h 72% 0 mm 0.0 W/m2
23:14 22.2 °C 17.1 °C 1012.1 hPa ESE 9.7 km/h 16.1 km/h 73% 0 mm 0.0 W/m2
23:19 22.3 °C 16.6 °C 1012.1 hPa ESE 11.1 km/h 22.5 km/h 70% 0 mm 0.0 W/m2
23:29 22.7 °C 15.8 °C 1011.7 hPa ESE 14.3 km/h 20.9 km/h 65% 0 mm 0.0 W/m2
23:35 22.8 °C 15.9 °C 1011.7 hPa ESE 9.7 km/h 16.1 km/h 65% 0 mm 0.0 W/m2
23:44 23 °C 16.1 °C 1011.7 hPa ESE 11.1 km/h 17.7 km/h 65% 0 mm 0.0 W/m2
23:49 23 °C 16.1 °C 1011.7 hPa ESE 13 km/h 16.1 km/h 65% 0 mm 0.0 W/m2
23:59 22.8 °C 16.4 °C 1011.7 hPa ESE 9.7 km/h 16.1 km/h 67% 0 mm 0.0 W/m2
Canyon Roadhouse, Fishriver Canyon, Namibia
Compliments of Weather Underground - 2.25 mb